Archival Weather

Chicago O'hare International

Chicago O'hare International, Illinois (KORD)

Report from: Saturday, May 14, 2022 7:51 AM CDT
Current time: Monday, May 23, 2022 2:47 AM CDT

Current weather
Weather history
Weather forecast

Temperature23.3°C (73.9°F)
Dew point16.1°C (61.0°F)
Winds 7 kts (3.6 m/s, 8.1 mph) North (350°)
Visibility10 mi. (16.1 km)
Clouds Scattered clouds 10,000 ft. (3,048 m)
Ceiling: Broken clouds 25,000 ft. (7,620 m)
Altimeter29.94 in.Hg (1014 mB)
Relative humidity64 %
Density altitude1,195 ft. (364 m)
Sea-level pressure101.3 kPa (1013 mB, 29.92 in.Hg)
Remarks Automated weather observing station with precipitation discriminator
Flight conditions Visual Meteorological Conditions
Raw dataKORD 141251Z 35007KT 10SM SCT100 BKN250 23/16 A2994 RMK AO2 SLP131 T02330161
An error has occurred. This application may no longer respond until reloaded. Reload 🗙